White Point — IBAE — position and weather

sailwx.info

Track history (hours):
 
Tides and Currents Weather Stations Pressure Air Temp Water Temp Dewpoint Dewpoint Depression Visibility Wind Speed Wind Dir Waves Ship Positions

White Point

Last reported at 2014-Dec-20 06:33 UTC. Time now 2014-Dec-22 17:02 UTC.
Position N 38°13' E 015°16'.

Length 183 m; draft 1.1 m.

Type: Ship (hazmat cat D). MMSI: 247087400.

Date/timePositionNaut miles runAvg speedWind from/ knotsBaromVisibWave heightAir tempDewpointWater temp
2014-Dec-20 06:33N 38°13' E 015°16'0 0.0
2014-Dec-19 19:03N 38°13' E 015°16'0 0.0
2014-Dec-19 18:33N 38°13' E 015°16'0 0.0
2014-Dec-19 17:33N 38°13' E 015°16'0 0.0
2014-Dec-19 16:33N 38°13' E 015°16'0 0.0
2014-Dec-19 15:33N 38°13' E 015°16'0 0.0
2014-Dec-19 14:33N 38°13' E 015°16'0 0.0
2014-Dec-19 13:33N 38°13' E 015°16'0 0.0
2014-Dec-19 12:33N 38°13' E 015°16'0 0.0
2014-Dec-19 11:33N 38°13' E 015°16'0 0.0
2014-Dec-19 10:33N 38°13' E 015°16'1 0.9
2014-Dec-19 09:33N 38°13' E 015°17'0 0.0
2014-Dec-19 08:31N 38°13' E 015°17'3 3.1
2014-Dec-19 07:33N 38°15' E 015°20'1812.8
2014-Dec-19 06:09N 38°19' E 015°42'  
2014-Dec-14 11:32N 38°13' E 015°36'8 7.5
2014-Dec-14 10:27N 38°20' E 015°30'1213.1
2014-Dec-14 09:33N 38°14' E 015°18'2 1.8
2014-Dec-14 08:33N 38°13' E 015°16'0 0.0
2014-Dec-14 07:33N 38°13' E 015°16'0 0.0
2014-Dec-14 06:33N 38°13' E 015°16'0 0.0
2014-Dec-13 19:33N 38°13' E 015°16'0 0.0
2014-Dec-13 18:33N 38°13' E 015°16'0 0.0
2014-Dec-13 17:33N 38°13' E 015°16'0 0.0
2014-Dec-13 16:33N 38°13' E 015°16'0 0.0
2014-Dec-13 15:33N 38°13' E 015°16'0 0.0
2014-Dec-13 14:33N 38°13' E 015°16'0 0.0
2014-Dec-13 13:33N 38°13' E 015°16'0 0.0
2014-Dec-13 12:33N 38°13' E 015°16'0 0.0
2014-Dec-13 11:33N 38°13' E 015°16'0 0.0
2014-Dec-13 10:33N 38°13' E 015°16'0 0.0
2014-Dec-13 09:33N 38°13' E 015°16'0 0.0
2014-Dec-13 08:33N 38°13' E 015°16'0 0.0
2014-Dec-13 07:33N 38°13' E 015°16'1 1.0
2014-Dec-13 06:30N 38°13' E 015°17'0 0.0
2014-Dec-12 20:12N 38°13' E 015°18'0 0.1
2014-Dec-12 19:30N 38°13' E 015°17'0 0.0
2014-Dec-12 18:30N 38°13' E 015°18'0 0.0
2014-Dec-12 17:30N 38°13' E 015°18'0 0.0
2014-Dec-12 16:30N 38°13' E 015°17'0 0.0
2014-Dec-12 15:30N 38°13' E 015°18'0 0.0
2014-Dec-12 14:30N 38°13' E 015°17'0 0.0
2014-Dec-12 13:30N 38°13' E 015°17'0 0.0
2014-Dec-12 12:30N 38°13' E 015°17'0 0.0
2014-Dec-12 11:30N 38°13' E 015°17'0 0.0
2014-Dec-12 10:12N 38°13' E 015°17'0 0.0
2014-Dec-12 09:30N 38°13' E 015°17'0 0.0
2014-Dec-12 08:30N 38°13' E 015°17'0 0.0
2014-Dec-12 07:30N 38°13' E 015°17'0 0.0
2014-Dec-12 06:30N 38°13' E 015°17'170 8.1
2014-Dec-11 09:21N 40°32' E 013°09'17913.8
2014-Dec-10 20:20N 42°35' E 010°16'2614.8
2014-Dec-10 18:33N 42°53' E 009°49'2014.5
2014-Dec-10 17:09N 43°06' E 009°28'  
Track history (hours):
 
Tides and Currents Weather Stations Pressure Air Temp Water Temp Dewpoint Dewpoint Depression Visibility Wind Speed Wind Dir Waves Ship Positions

White Point

Last reported at 2014-Dec-20 06:33 UTC. Time now 2014-Dec-22 17:02 UTC.
Position N 38°13' E 015°16'.

Length 183 m; draft 1.1 m.

Type: Ship (hazmat cat D). MMSI: 247087400.

Date/timePositionNaut miles runAvg speedWind from/ knotsBaromVisibWave heightAir tempDewpointWater temp
2014-Dec-20 06:33N 38°13' E 015°16'0 0.0
2014-Dec-19 19:03N 38°13' E 015°16'0 0.0
2014-Dec-19 18:33N 38°13' E 015°16'0 0.0
2014-Dec-19 17:33N 38°13' E 015°16'0 0.0
2014-Dec-19 16:33N 38°13' E 015°16'0 0.0
2014-Dec-19 15:33N 38°13' E 015°16'0 0.0
2014-Dec-19 14:33N 38°13' E 015°16'0 0.0
2014-Dec-19 13:33N 38°13' E 015°16'0 0.0
2014-Dec-19 12:33N 38°13' E 015°16'0 0.0
2014-Dec-19 11:33N 38°13' E 015°16'0 0.0
2014-Dec-19 10:33N 38°13' E 015°16'1 0.9
2014-Dec-19 09:33N 38°13' E 015°17'0 0.0
2014-Dec-19 08:31N 38°13' E 015°17'3 3.1
2014-Dec-19 07:33N 38°15' E 015°20'1812.8
2014-Dec-19 06:09N 38°19' E 015°42'  
2014-Dec-14 11:32N 38°13' E 015°36'8 7.5
2014-Dec-14 10:27N 38°20' E 015°30'1213.1
2014-Dec-14 09:33N 38°14' E 015°18'2 1.8
2014-Dec-14 08:33N 38°13' E 015°16'0 0.0
2014-Dec-14 07:33N 38°13' E 015°16'0 0.0
2014-Dec-14 06:33N 38°13' E 015°16'0 0.0
2014-Dec-13 19:33N 38°13' E 015°16'0 0.0
2014-Dec-13 18:33N 38°13' E 015°16'0 0.0
2014-Dec-13 17:33N 38°13' E 015°16'0 0.0
2014-Dec-13 16:33N 38°13' E 015°16'0 0.0
2014-Dec-13 15:33N 38°13' E 015°16'0 0.0
2014-Dec-13 14:33N 38°13' E 015°16'0 0.0
2014-Dec-13 13:33N 38°13' E 015°16'0 0.0
2014-Dec-13 12:33N 38°13' E 015°16'0 0.0
2014-Dec-13 11:33N 38°13' E 015°16'0 0.0
2014-Dec-13 10:33N 38°13' E 015°16'0 0.0
2014-Dec-13 09:33N 38°13' E 015°16'0 0.0
2014-Dec-13 08:33N 38°13' E 015°16'0 0.0
2014-Dec-13 07:33N 38°13' E 015°16'1 1.0
2014-Dec-13 06:30N 38°13' E 015°17'0 0.0
2014-Dec-12 20:12N 38°13' E 015°18'0 0.1
2014-Dec-12 19:30N 38°13' E 015°17'0 0.0
2014-Dec-12 18:30N 38°13' E 015°18'0 0.0
2014-Dec-12 17:30N 38°13' E 015°18'0 0.0
2014-Dec-12 16:30N 38°13' E 015°17'0 0.0
2014-Dec-12 15:30N 38°13' E 015°18'0 0.0
2014-Dec-12 14:30N 38°13' E 015°17'0 0.0
2014-Dec-12 13:30N 38°13' E 015°17'0 0.0
2014-Dec-12 12:30N 38°13' E 015°17'0 0.0
2014-Dec-12 11:30N 38°13' E 015°17'0 0.0
2014-Dec-12 10:12N 38°13' E 015°17'0 0.0
2014-Dec-12 09:30N 38°13' E 015°17'0 0.0
2014-Dec-12 08:30N 38°13' E 015°17'0 0.0
2014-Dec-12 07:30N 38°13' E 015°17'0 0.0
2014-Dec-12 06:30N 38°13' E 015°17'170 8.1
2014-Dec-11 09:21N 40°32' E 013°09'17913.8
2014-Dec-10 20:20N 42°35' E 010°16'2614.8
2014-Dec-10 18:33N 42°53' E 009°49'2014.5
2014-Dec-10 17:09N 43°06' E 009°28'  

Dump ship's entire track history